sensor_id;sensor_type;location;lat;lon;timestamp;pressure;altitude;pressure_sealevel;temperature;humidity
38616;BME280;24370;51.986;4.666;2022-12-01T00:01:14;102882.13;;;12.92;47.57
38616;BME280;24370;51.986;4.666;2022-12-01T00:03:40;102877.25;;;12.56;47.81
38616;BME280;24370;51.986;4.666;2022-12-01T00:06:09;102877.44;;;12.70;47.24
38616;BME280;24370;51.986;4.666;2022-12-01T00:08:34;102876.22;;;12.45;48.20
38616;BME280;24370;51.986;4.666;2022-12-01T00:11:05;102873.91;;;12.09;48.35
38616;BME280;24370;51.986;4.666;2022-12-01T00:13:31;102869.84;;;12.89;47.11
38616;BME280;24370;51.986;4.666;2022-12-01T00:15:56;102872.84;;;12.54;47.34
38616;BME280;24370;51.986;4.666;2022-12-01T00:18:21;102869.34;;;12.52;47.37
38616;BME280;24370;51.986;4.666;2022-12-01T00:20:47;102875.66;;;12.68;47.54
38616;BME280;24370;51.986;4.666;2022-12-01T00:23:20;102879.47;;;12.90;46.65
38616;BME280;24370;51.986;4.666;2022-12-01T00:25:45;102881.81;;;12.68;47.31
38616;BME280;24370;51.986;4.666;2022-12-01T00:28:10;102881.72;;;12.62;47.12
38616;BME280;24370;51.986;4.666;2022-12-01T00:30:36;102889.00;;;12.82;47.89
38616;BME280;24370;51.986;4.666;2022-12-01T00:33:01;102880.34;;;12.89;47.24
38616;BME280;24370;51.986;4.666;2022-12-01T00:35:26;102883.44;;;12.60;47.07
38616;BME280;24370;51.986;4.666;2022-12-01T00:37:53;102885.66;;;12.32;47.94
38616;BME280;24370;51.986;4.666;2022-12-01T00:40:18;102874.66;;;12.58;47.32
38616;BME280;24370;51.986;4.666;2022-12-01T00:42:43;102881.88;;;12.75;47.08
38616;BME280;24370;51.986;4.666;2022-12-01T00:45:09;102885.75;;;12.38;47.25
38616;BME280;24370;51.986;4.666;2022-12-01T00:47:35;102881.78;;;12.65;47.55
38616;BME280;24370;51.986;4.666;2022-12-01T00:50:00;102883.34;;;12.54;47.45
38616;BME280;24370;51.986;4.666;2022-12-01T00:52:26;102886.16;;;12.68;47.53
38616;BME280;24370;51.986;4.666;2022-12-01T00:54:51;102890.94;;;12.35;48.19
38616;BME280;24370;51.986;4.666;2022-12-01T00:57:16;102883.44;;;12.60;48.05
38616;BME280;24370;51.986;4.666;2022-12-01T00:59:42;102887.22;;;12.81;47.88
38616;BME280;24370;51.986;4.666;2022-12-01T01:02:07;102890.47;;;12.61;48.25
38616;BME280;24370;51.986;4.666;2022-12-01T01:04:34;102891.28;;;12.57;48.53
38616;BME280;24370;51.986;4.666;2022-12-01T01:07:00;102885.22;;;12.61;49.14
38616;BME280;24370;51.986;4.666;2022-12-01T01:09:25;102887.53;;;13.05;47.98
38616;BME280;24370;51.986;4.666;2022-12-01T01:11:52;102895.53;;;12.49;49.13
38616;BME280;24370;51.986;4.666;2022-12-01T01:14:18;102891.13;;;13.14;48.15
38616;BME280;24370;51.986;4.666;2022-12-01T01:16:43;102888.25;;;12.94;48.54
38616;BME280;24370;51.986;4.666;2022-12-01T01:19:09;102889.50;;;13.22;47.58
38616;BME280;24370;51.986;4.666;2022-12-01T01:21:34;102885.41;;;13.46;47.04
38616;BME280;24370;51.986;4.666;2022-12-01T01:24:00;102898.75;;;12.94;47.99
38616;BME280;24370;51.986;4.666;2022-12-01T01:26:28;102895.06;;;13.50;47.18
38616;BME280;24370;51.986;4.666;2022-12-01T01:29:00;102898.53;;;13.47;47.20
38616;BME280;24370;51.986;4.666;2022-12-01T01:31:27;102907.09;;;13.32;47.87
38616;BME280;24370;51.986;4.666;2022-12-01T01:33:56;102906.94;;;13.20;47.90
38616;BME280;24370;51.986;4.666;2022-12-01T01:36:23;102907.19;;;13.35;47.87
38616;BME280;24370;51.986;4.666;2022-12-01T01:38:49;102906.69;;;13.73;46.95
38616;BME280;24370;51.986;4.666;2022-12-01T01:41:16;102903.91;;;13.55;47.55
38616;BME280;24370;51.986;4.666;2022-12-01T01:46:23;102900.69;;;13.87;46.67
38616;BME280;24370;51.986;4.666;2022-12-01T01:49:04;102896.28;;;13.86;47.00
38616;BME280;24370;51.986;4.666;2022-12-01T01:51:50;102907.31;;;13.48;48.63
38616;BME280;24370;51.986;4.666;2022-12-01T01:54:19;102915.09;;;13.38;48.08
38616;BME280;24370;51.986;4.666;2022-12-01T01:56:48;102919.78;;;12.97;49.21
38616;BME280;24370;51.986;4.666;2022-12-01T01:59:21;102913.63;;;13.65;47.87
38616;BME280;24370;51.986;4.666;2022-12-01T02:01:51;102906.91;;;13.95;47.59
38616;BME280;24370;51.986;4.666;2022-12-01T02:04:21;102909.28;;;13.70;47.50
38616;BME280;24370;51.986;4.666;2022-12-01T02:06:47;102909.22;;;13.63;48.00
38616;BME280;24370;51.986;4.666;2022-12-01T02:09:12;102919.22;;;13.21;48.87
38616;BME280;24370;51.986;4.666;2022-12-01T02:11:55;102902.72;;;14.20;46.69
38616;BME280;24370;51.986;4.666;2022-12-01T02:23:03;102896.69;;;14.34;47.23
38616;BME280;24370;51.986;4.666;2022-12-01T02:31:42;102893.97;;;14.23;47.46
38616;BME280;24370;51.986;4.666;2022-12-01T02:37:33;102886.91;;;14.13;47.75
38616;BME280;24370;51.986;4.666;2022-12-01T02:42:46;102888.13;;;14.63;46.61
38616;BME280;24370;51.986;4.666;2022-12-01T02:45:27;102891.56;;;14.54;46.65
38616;BME280;24370;51.986;4.666;2022-12-01T02:47:59;102881.88;;;14.47;46.83
38616;BME280;24370;51.986;4.666;2022-12-01T02:50:28;102882.81;;;14.58;46.17
38616;BME280;24370;51.986;4.666;2022-12-01T02:52:54;102883.69;;;14.57;46.19
38616;BME280;24370;51.986;4.666;2022-12-01T02:55:20;102886.94;;;14.20;47.12
38616;BME280;24370;51.986;4.666;2022-12-01T02:57:45;102890.41;;;14.15;47.12
38616;BME280;24370;51.986;4.666;2022-12-01T03:00:11;102889.78;;;14.53;46.58
38616;BME280;24370;51.986;4.666;2022-12-01T03:10:47;102883.41;;;14.17;46.41
38616;BME280;24370;51.986;4.666;2022-12-01T03:13:41;102879.53;;;13.71;47.07
38616;BME280;24370;51.986;4.666;2022-12-01T03:19:23;102898.25;;;13.26;47.55
38616;BME280;24370;51.986;4.666;2022-12-01T03:21:56;102885.38;;;13.44;47.32
38616;BME280;24370;51.986;4.666;2022-12-01T03:24:24;102893.44;;;13.63;46.68
38616;BME280;24370;51.986;4.666;2022-12-01T03:26:55;102891.25;;;13.23;48.09
38616;BME280;24370;51.986;4.666;2022-12-01T03:29:35;102882.56;;;13.30;47.41
38616;BME280;24370;51.986;4.666;2022-12-01T03:32:17;102881.63;;;13.25;47.26
38616;BME280;24370;51.986;4.666;2022-12-01T03:34:49;102878.59;;;13.68;45.88
38616;BME280;24370;51.986;4.666;2022-12-01T03:37:22;102876.47;;;13.33;46.80
38616;BME280;24370;51.986;4.666;2022-12-01T03:39:50;102881.22;;;13.66;45.93
38616;BME280;24370;51.986;4.666;2022-12-01T03:45:05;102884.56;;;13.50;46.29
38616;BME280;24370;51.986;4.666;2022-12-01T03:47:33;102875.97;;;13.66;45.46
38616;BME280;24370;51.986;4.666;2022-12-01T03:50:03;102886.91;;;13.28;47.19
38616;BME280;24370;51.986;4.666;2022-12-01T03:53:06;102884.28;;;13.28;46.99
38616;BME280;24370;51.986;4.666;2022-12-01T03:55:39;102884.91;;;13.04;46.70
38616;BME280;24370;51.986;4.666;2022-12-01T03:58:29;102892.53;;;12.87;47.33
38616;BME280;24370;51.986;4.666;2022-12-01T04:01:00;102883.84;;;12.91;47.98
38616;BME280;24370;51.986;4.666;2022-12-01T04:03:26;102888.94;;;12.79;47.58
38616;BME280;24370;51.986;4.666;2022-12-01T04:05:52;102885.38;;;12.73;47.64
38616;BME280;24370;51.986;4.666;2022-12-01T04:08:17;102886.09;;;12.63;47.25
38616;BME280;24370;51.986;4.666;2022-12-01T04:10:43;102884.31;;;12.61;47.30
38616;BME280;24370;51.986;4.666;2022-12-01T04:13:08;102891.22;;;12.55;47.42
38616;BME280;24370;51.986;4.666;2022-12-01T04:15:41;102897.47;;;12.64;47.46
38616;BME280;24370;51.986;4.666;2022-12-01T04:18:07;102887.28;;;12.87;46.63
38616;BME280;24370;51.986;4.666;2022-12-01T04:20:32;102890.97;;;12.98;46.78
38616;BME280;24370;51.986;4.666;2022-12-01T04:22:57;102908.25;;;12.84;47.68
38616;BME280;24370;51.986;4.666;2022-12-01T04:25:23;102897.44;;;12.62;47.90
38616;BME280;24370;51.986;4.666;2022-12-01T04:27:48;102901.38;;;12.92;47.51
38616;BME280;24370;51.986;4.666;2022-12-01T04:30:14;102891.38;;;12.07;51.19
38616;BME280;24370;51.986;4.666;2022-12-01T04:32:40;102891.78;;;12.94;48.38
38616;BME280;24370;51.986;4.666;2022-12-01T04:35:08;102893.34;;;12.83;48.12
38616;BME280;24370;51.986;4.666;2022-12-01T04:37:34;102894.66;;;13.16;47.39
38616;BME280;24370;51.986;4.666;2022-12-01T04:39:59;102892.69;;;12.99;48.30
38616;BME280;24370;51.986;4.666;2022-12-01T04:42:25;102899.81;;;13.06;47.71
38616;BME280;24370;51.986;4.666;2022-12-01T04:44:50;102891.63;;;13.57;47.03
38616;BME280;24370;51.986;4.666;2022-12-01T04:47:15;102886.19;;;13.38;47.78
38616;BME280;24370;51.986;4.666;2022-12-01T04:49:41;102905.34;;;13.31;47.11
38616;BME280;24370;51.986;4.666;2022-12-01T04:52:06;102887.09;;;13.40;47.22
38616;BME280;24370;51.986;4.666;2022-12-01T04:54:32;102886.63;;;13.82;46.41
38616;BME280;24370;51.986;4.666;2022-12-01T04:56:57;102893.41;;;13.58;46.87
38616;BME280;24370;51.986;4.666;2022-12-01T04:59:23;102889.78;;;13.44;47.46
38616;BME280;24370;51.986;4.666;2022-12-01T05:01:48;102907.91;;;13.27;47.77
38616;BME280;24370;51.986;4.666;2022-12-01T05:04:14;102903.03;;;13.57;47.19
38616;BME280;24370;51.986;4.666;2022-12-01T05:06:39;102891.66;;;13.58;47.83
38616;BME280;24370;51.986;4.666;2022-12-01T05:09:05;102904.66;;;13.45;47.42
38616;BME280;24370;51.986;4.666;2022-12-01T05:11:31;102893.00;;;14.10;46.46
38616;BME280;24370;51.986;4.666;2022-12-01T05:13:57;102891.94;;;13.88;46.95
38616;BME280;24370;51.986;4.666;2022-12-01T05:16:26;102895.28;;;13.68;47.61
38616;BME280;24370;51.986;4.666;2022-12-01T05:18:54;102891.69;;;13.60;47.08
38616;BME280;24370;51.986;4.666;2022-12-01T05:21:40;102888.00;;;13.43;47.63
38616;BME280;24370;51.986;4.666;2022-12-01T05:24:06;102897.69;;;13.47;47.15
38616;BME280;24370;51.986;4.666;2022-12-01T05:26:32;102902.66;;;13.25;47.50
38616;BME280;24370;51.986;4.666;2022-12-01T05:28:58;102902.94;;;13.47;46.70
38616;BME280;24370;51.986;4.666;2022-12-01T05:31:23;102908.41;;;12.95;47.93
38616;BME280;24370;51.986;4.666;2022-12-01T05:33:49;102911.91;;;12.95;48.29
38616;BME280;24370;51.986;4.666;2022-12-01T05:36:14;102912.06;;;13.07;47.90
38616;BME280;24370;51.986;4.666;2022-12-01T05:38:39;102917.44;;;13.17;47.82
38616;BME280;24370;51.986;4.666;2022-12-01T05:41:05;102916.50;;;13.13;47.85
38616;BME280;24370;51.986;4.666;2022-12-01T05:43:30;102901.94;;;13.35;46.99
38616;BME280;24370;51.986;4.666;2022-12-01T05:45:56;102901.81;;;13.29;47.40
38616;BME280;24370;51.986;4.666;2022-12-01T05:48:22;102896.75;;;13.42;46.48
38616;BME280;24370;51.986;4.666;2022-12-01T05:50:47;102899.31;;;13.35;46.94
38616;BME280;24370;51.986;4.666;2022-12-01T05:53:13;102894.38;;;13.66;45.31
38616;BME280;24370;51.986;4.666;2022-12-01T05:55:39;102903.56;;;13.27;46.03
38616;BME280;24370;51.986;4.666;2022-12-01T05:58:04;102906.88;;;13.12;46.77
38616;BME280;24370;51.986;4.666;2022-12-01T06:00:30;102911.50;;;12.64;47.62
38616;BME280;24370;51.986;4.666;2022-12-01T06:02:55;102918.59;;;12.71;47.36
38616;BME280;24370;51.986;4.666;2022-12-01T06:05:21;102920.13;;;12.57;47.47
38616;BME280;24370;51.986;4.666;2022-12-01T06:07:46;102920.03;;;12.51;47.41
38616;BME280;24370;51.986;4.666;2022-12-01T06:10:12;102920.34;;;12.71;47.38
38616;BME280;24370;51.986;4.666;2022-12-01T06:12:38;102926.41;;;12.67;46.83
38616;BME280;24370;51.986;4.666;2022-12-01T06:15:04;102923.53;;;12.51;47.32
38616;BME280;24370;51.986;4.666;2022-12-01T06:17:31;102930.75;;;12.68;46.96
38616;BME280;24370;51.986;4.666;2022-12-01T06:19:56;102930.38;;;12.42;47.40
38616;BME280;24370;51.986;4.666;2022-12-01T06:22:22;102927.09;;;12.55;47.37
38616;BME280;24370;51.986;4.666;2022-12-01T06:24:47;102926.91;;;12.43;47.66
38616;BME280;24370;51.986;4.666;2022-12-01T06:27:12;102932.28;;;12.52;47.51
38616;BME280;24370;51.986;4.666;2022-12-01T06:29:38;102924.69;;;12.70;47.07
38616;BME280;24370;51.986;4.666;2022-12-01T06:32:03;102926.47;;;12.75;46.98
38616;BME280;24370;51.986;4.666;2022-12-01T06:34:29;102921.75;;;12.49;47.40
38616;BME280;24370;51.986;4.666;2022-12-01T06:36:54;102923.78;;;12.68;46.57
38616;BME280;24370;51.986;4.666;2022-12-01T06:39:20;102926.44;;;12.70;46.70
38616;BME280;24370;51.986;4.666;2022-12-01T06:41:45;102936.13;;;12.76;46.63
38616;BME280;24370;51.986;4.666;2022-12-01T06:44:10;102933.00;;;13.01;46.10
38616;BME280;24370;51.986;4.666;2022-12-01T06:46:36;102935.19;;;12.72;46.67
38616;BME280;24370;51.986;4.666;2022-12-01T06:49:02;102934.69;;;12.36;48.14
38616;BME280;24370;51.986;4.666;2022-12-01T06:51:27;102938.00;;;12.84;46.59
38616;BME280;24370;51.986;4.666;2022-12-01T06:53:53;102940.56;;;12.80;46.80
38616;BME280;24370;51.986;4.666;2022-12-01T06:56:19;102942.88;;;12.58;47.04
38616;BME280;24370;51.986;4.666;2022-12-01T06:58:45;102941.13;;;12.57;47.02
38616;BME280;24370;51.986;4.666;2022-12-01T07:01:11;102941.97;;;12.56;47.27
38616;BME280;24370;51.986;4.666;2022-12-01T07:03:37;102941.66;;;12.37;48.29
38616;BME280;24370;51.986;4.666;2022-12-01T07:06:03;102939.19;;;12.47;47.22
38616;BME280;24370;51.986;4.666;2022-12-01T07:08:29;102945.56;;;12.63;46.94
38616;BME280;24370;51.986;4.666;2022-12-01T07:10:57;102944.84;;;12.75;45.87
38616;BME280;24370;51.986;4.666;2022-12-01T07:13:23;102946.38;;;12.57;47.14
38616;BME280;24370;51.986;4.666;2022-12-01T07:15:48;102940.66;;;12.29;47.76
38616;BME280;24370;51.986;4.666;2022-12-01T07:18:13;102944.19;;;12.30;48.15
38616;BME280;24370;51.986;4.666;2022-12-01T07:20:39;102954.69;;;12.31;47.94
38616;BME280;24370;51.986;4.666;2022-12-01T07:23:04;102950.03;;;12.68;47.13
38616;BME280;24370;51.986;4.666;2022-12-01T07:25:29;102958.69;;;12.63;47.19
38616;BME280;24370;51.986;4.666;2022-12-01T07:27:55;102960.59;;;12.75;46.66
38616;BME280;24370;51.986;4.666;2022-12-01T07:30:20;102959.72;;;12.72;47.00
38616;BME280;24370;51.986;4.666;2022-12-01T07:32:46;102959.56;;;12.63;47.45
38616;BME280;24370;51.986;4.666;2022-12-01T07:35:11;102963.00;;;12.59;48.13
38616;BME280;24370;51.986;4.666;2022-12-01T07:37:37;102965.81;;;12.71;47.70
38616;BME280;24370;51.986;4.666;2022-12-01T07:40:02;102970.88;;;12.59;48.13
38616;BME280;24370;51.986;4.666;2022-12-01T07:42:28;102972.72;;;12.66;48.07
38616;BME280;24370;51.986;4.666;2022-12-01T07:44:53;102978.25;;;12.85;47.66
38616;BME280;24370;51.986;4.666;2022-12-01T07:47:18;102976.31;;;12.71;48.39
38616;BME280;24370;51.986;4.666;2022-12-01T07:49:44;102969.53;;;12.86;48.12
38616;BME280;24370;51.986;4.666;2022-12-01T07:52:09;102975.31;;;13.26;46.92
38616;BME280;24370;51.986;4.666;2022-12-01T07:54:34;102977.28;;;13.39;46.79
38616;BME280;24370;51.986;4.666;2022-12-01T07:57:00;102983.47;;;13.46;46.77
38616;BME280;24370;51.986;4.666;2022-12-01T07:59:25;102989.41;;;13.31;46.82
38616;BME280;24370;51.986;4.666;2022-12-01T08:01:50;102989.41;;;13.31;47.16
38616;BME280;24370;51.986;4.666;2022-12-01T08:04:16;102991.00;;;13.21;47.72
38616;BME280;24370;51.986;4.666;2022-12-01T08:06:41;102999.03;;;13.32;47.11
38616;BME280;24370;51.986;4.666;2022-12-01T08:09:07;103005.34;;;13.44;47.04
38616;BME280;24370;51.986;4.666;2022-12-01T08:11:32;102999.84;;;13.28;47.81
38616;BME280;24370;51.986;4.666;2022-12-01T08:13:57;103001.81;;;13.42;47.62
38616;BME280;24370;51.986;4.666;2022-12-01T08:16:23;103008.09;;;13.54;47.28
38616;BME280;24370;51.986;4.666;2022-12-01T08:18:49;102998.25;;;13.38;47.98
38616;BME280;24370;51.986;4.666;2022-12-01T08:21:18;103001.25;;;13.69;46.99
38616;BME280;24370;51.986;4.666;2022-12-01T08:23:43;102993.25;;;13.58;47.39
38616;BME280;24370;51.986;4.666;2022-12-01T08:26:14;102995.97;;;13.66;47.47
38616;BME280;24370;51.986;4.666;2022-12-01T08:28:40;103004.63;;;13.58;47.23
38616;BME280;24370;51.986;4.666;2022-12-01T08:33:42;103001.81;;;13.42;48.13
38616;BME280;24370;51.986;4.666;2022-12-01T08:36:07;103004.75;;;13.69;47.68
38616;BME280;24370;51.986;4.666;2022-12-01T08:38:33;103017.03;;;13.67;47.45
38616;BME280;24370;51.986;4.666;2022-12-01T08:41:04;103010.94;;;13.73;47.75
38616;BME280;24370;51.986;4.666;2022-12-01T08:43:29;103009.13;;;13.66;48.16
38616;BME280;24370;51.986;4.666;2022-12-01T08:45:59;103019.97;;;13.26;49.03
38616;BME280;24370;51.986;4.666;2022-12-01T08:48:25;103010.91;;;13.68;48.02
38616;BME280;24370;51.986;4.666;2022-12-01T08:51:09;103012.66;;;13.69;48.24
38616;BME280;24370;51.986;4.666;2022-12-01T08:53:38;103012.28;;;13.38;49.23
38616;BME280;24370;51.986;4.666;2022-12-01T08:56:15;103015.34;;;13.74;48.38
38616;BME280;24370;51.986;4.666;2022-12-01T08:58:41;103014.53;;;13.80;48.45
38616;BME280;24370;51.986;4.666;2022-12-01T09:01:17;103014.53;;;13.80;49.27
38616;BME280;24370;51.986;4.666;2022-12-01T09:03:43;103004.19;;;13.98;48.80
38616;BME280;24370;51.986;4.666;2022-12-01T09:06:19;103005.84;;;13.16;51.04
38616;BME280;24370;51.986;4.666;2022-12-01T09:08:45;102999.16;;;14.20;48.70
38616;BME280;24370;51.986;4.666;2022-12-01T09:11:13;102994.34;;;14.69;47.33
38616;BME280;24370;51.986;4.666;2022-12-01T09:13:39;102993.34;;;14.56;47.01
38616;BME280;24370;51.986;4.666;2022-12-01T09:16:08;102990.81;;;14.67;46.86
38616;BME280;24370;51.986;4.666;2022-12-01T09:18:34;102995.78;;;14.36;47.70
38616;BME280;24370;51.986;4.666;2022-12-01T09:21:08;103001.34;;;14.67;47.08
38616;BME280;24370;51.986;4.666;2022-12-01T09:23:34;103000.00;;;14.14;48.24
38616;BME280;24370;51.986;4.666;2022-12-01T09:25:59;103004.00;;;14.73;46.76
38616;BME280;24370;51.986;4.666;2022-12-01T09:28:25;102999.75;;;14.94;46.67
38616;BME280;24370;51.986;4.666;2022-12-01T09:30:50;103006.22;;;14.27;47.97
38616;BME280;24370;51.986;4.666;2022-12-01T09:33:16;103008.47;;;14.84;47.27
38616;BME280;24370;51.986;4.666;2022-12-01T09:35:41;103001.66;;;15.17;47.04
38616;BME280;24370;51.986;4.666;2022-12-01T09:38:06;103006.88;;;15.14;47.47
38616;BME280;24370;51.986;4.666;2022-12-01T09:40:38;103005.03;;;14.92;48.01
38616;BME280;24370;51.986;4.666;2022-12-01T09:43:16;103002.66;;;15.45;46.74
38616;BME280;24370;51.986;4.666;2022-12-01T09:45:46;103001.00;;;15.76;46.94
38616;BME280;24370;51.986;4.666;2022-12-01T09:48:23;103000.09;;;15.62;46.70
38616;BME280;24370;51.986;4.666;2022-12-01T09:50:49;102994.97;;;16.24;46.59
38616;BME280;24370;51.986;4.666;2022-12-01T09:53:20;103000.09;;;15.73;47.06
38616;BME280;24370;51.986;4.666;2022-12-01T09:55:47;102997.38;;;15.45;47.54
38616;BME280;24370;51.986;4.666;2022-12-01T09:58:17;102988.78;;;15.99;46.30
38616;BME280;24370;51.986;4.666;2022-12-01T10:00:45;102982.38;;;15.30;48.61
38616;BME280;24370;51.986;4.666;2022-12-01T10:03:31;102977.38;;;16.20;46.30
38616;BME280;24370;51.986;4.666;2022-12-01T10:06:04;102978.25;;;16.22;46.03
38616;BME280;24370;51.986;4.666;2022-12-01T10:08:40;102972.09;;;16.23;46.16
38616;BME280;24370;51.986;4.666;2022-12-01T10:11:32;102977.16;;;15.39;47.66
38616;BME280;24370;51.986;4.666;2022-12-01T10:13:59;102977.97;;;15.20;48.02
38616;BME280;24370;51.986;4.666;2022-12-01T10:16:31;102985.66;;;14.81;48.08
38616;BME280;24370;51.986;4.666;2022-12-01T10:19:06;102975.59;;;16.09;46.21
38616;BME280;24370;51.986;4.666;2022-12-01T10:26:51;102974.72;;;16.41;45.63
38616;BME280;24370;51.986;4.666;2022-12-01T10:31:56;102964.59;;;17.75;43.05
38616;BME280;24370;51.986;4.666;2022-12-01T10:34:34;102974.47;;;17.46;44.30
38616;BME280;24370;51.986;4.666;2022-12-01T10:37:01;102977.13;;;17.46;42.98
38616;BME280;24370;51.986;4.666;2022-12-01T10:39:33;102975.47;;;17.21;43.27
38616;BME280;24370;51.986;4.666;2022-12-01T10:42:09;102975.44;;;17.30;43.92
38616;BME280;24370;51.986;4.666;2022-12-01T10:44:37;102972.00;;;17.06;43.18
38616;BME280;24370;51.986;4.666;2022-12-01T10:47:26;102966.78;;;16.04;45.69
38616;BME280;24370;51.986;4.666;2022-12-01T10:49:53;102969.44;;;16.17;44.19
38616;BME280;24370;51.986;4.666;2022-12-01T10:52:39;102968.56;;;16.64;43.90
38616;BME280;24370;51.986;4.666;2022-12-01T10:57:51;102971.97;;;15.64;46.18
38616;BME280;24370;51.986;4.666;2022-12-01T11:00:26;102968.56;;;16.42;44.91
38616;BME280;24370;51.986;4.666;2022-12-01T11:02:53;102977.97;;;15.23;47.11
38616;BME280;24370;51.986;4.666;2022-12-01T11:06:19;102971.16;;;15.84;46.07
38616;BME280;24370;51.986;4.666;2022-12-01T11:08:33;102972.03;;;15.80;46.02
38616;BME280;24370;51.986;4.666;2022-12-01T11:11:00;102973.69;;;15.53;46.64
38616;BME280;24370;51.986;4.666;2022-12-01T11:13:28;102961.47;;;15.80;46.63
38616;BME280;24370;51.986;4.666;2022-12-01T11:16:00;102962.97;;;15.06;48.08
38616;BME280;24370;51.986;4.666;2022-12-01T11:18:34;102957.00;;;15.60;47.02
38616;BME280;24370;51.986;4.666;2022-12-01T11:23:35;102950.88;;;15.61;46.54
38616;BME280;24370;51.986;4.666;2022-12-01T11:26:17;102950.66;;;15.05;48.19
38616;BME280;24370;51.986;4.666;2022-12-01T11:29:04;102950.84;;;15.50;47.34
38616;BME280;24370;51.986;4.666;2022-12-01T11:31:49;102941.22;;;15.68;47.26
38616;BME280;24370;51.986;4.666;2022-12-01T11:36:48;102948.06;;;15.12;47.54
38616;BME280;24370;51.986;4.666;2022-12-01T11:39:42;102932.44;;;15.78;46.73
38616;BME280;24370;51.986;4.666;2022-12-01T11:42:27;102933.31;;;15.66;46.17
38616;BME280;24370;51.986;4.666;2022-12-01T11:48:06;102927.06;;;15.27;46.18
38616;BME280;24370;51.986;4.666;2022-12-01T11:50:38;102927.91;;;15.26;46.09
38616;BME280;24370;51.986;4.666;2022-12-01T11:55:51;102913.19;;;16.02;45.00
38616;BME280;24370;51.986;4.666;2022-12-01T11:58:18;102925.28;;;15.23;46.49
38616;BME280;24370;51.986;4.666;2022-12-01T12:00:53;102920.94;;;15.47;45.43
38616;BME280;24370;51.986;4.666;2022-12-01T12:03:27;102919.34;;;16.20;45.24
38616;BME280;24370;51.986;4.666;2022-12-01T12:27:50;102899.91;;;16.47;43.94
38616;BME280;24370;51.986;4.666;2022-12-01T12:30:22;102903.44;;;15.73;44.81
38616;BME280;24370;51.986;4.666;2022-12-01T12:33:16;102904.31;;;16.67;43.85
38616;BME280;24370;51.986;4.666;2022-12-01T12:41:51;102893.81;;;15.99;44.28
38616;BME280;24370;51.986;4.666;2022-12-01T12:52:49;102903.50;;;16.32;43.40
38616;BME280;24370;51.986;4.666;2022-12-01T12:55:22;102894.69;;;16.39;43.43
38616;BME280;24370;51.986;4.666;2022-12-01T13:00:42;102896.44;;;15.88;44.70
38616;BME280;24370;51.986;4.666;2022-12-01T13:03:20;102889.44;;;15.93;43.62
38616;BME280;24370;51.986;4.666;2022-12-01T13:06:12;102896.25;;;15.04;45.41
38616;BME280;24370;51.986;4.666;2022-12-01T13:08:44;102900.66;;;15.13;44.29
38616;BME280;24370;51.986;4.666;2022-12-01T13:11:23;102898.25;;;14.07;46.65
38616;BME280;24370;51.986;4.666;2022-12-01T13:16:44;102891.16;;;16.25;43.54
38616;BME280;24370;51.986;4.666;2022-12-01T13:21:41;102887.63;;;15.73;43.85
38616;BME280;24370;51.986;4.666;2022-12-01T13:24:11;102894.28;;;14.63;45.00
38616;BME280;24370;51.986;4.666;2022-12-01T13:26:37;102890.81;;;14.67;45.84
38616;BME280;24370;51.986;4.666;2022-12-01T13:29:05;102890.25;;;15.73;44.09
38616;BME280;24370;51.986;4.666;2022-12-01T13:31:47;102891.13;;;15.63;43.79
38616;BME280;24370;51.986;4.666;2022-12-01T13:36:52;102887.56;;;15.42;44.88
38616;BME280;24370;51.986;4.666;2022-12-01T13:41:44;102886.88;;;14.10;45.65
38616;BME280;24370;51.986;4.666;2022-12-01T13:49:45;102877.13;;;13.96;45.86
38616;BME280;24370;51.986;4.666;2022-12-01T13:55:23;102874.50;;;15.97;42.58
38616;BME280;24370;51.986;4.666;2022-12-01T14:00:38;102869.19;;;15.73;42.89
38616;BME280;24370;51.986;4.666;2022-12-01T14:06:07;102862.84;;;14.92;43.97
38616;BME280;24370;51.986;4.666;2022-12-01T14:08:44;102860.38;;;15.67;43.07
38616;BME280;24370;51.986;4.666;2022-12-01T14:11:23;102867.19;;;14.83;45.74
38616;BME280;24370;51.986;4.666;2022-12-01T14:14:17;102867.31;;;15.23;44.32
38616;BME280;24370;51.986;4.666;2022-12-01T14:16:47;102869.63;;;13.46;45.93
38616;BME280;24370;51.986;4.666;2022-12-01T14:21:59;102865.47;;;14.96;44.13
38616;BME280;24370;51.986;4.666;2022-12-01T14:24:41;102856.75;;;15.15;43.80
38616;BME280;24370;51.986;4.666;2022-12-01T14:27:08;102851.59;;;15.58;42.83
38616;BME280;24370;51.986;4.666;2022-12-01T14:29:39;102856.88;;;15.54;42.65
38616;BME280;24370;51.986;4.666;2022-12-01T14:34:34;102860.25;;;15.08;43.82
38616;BME280;24370;51.986;4.666;2022-12-01T14:37:15;102866.38;;;15.05;43.53
38616;BME280;24370;51.986;4.666;2022-12-01T14:39:47;102858.44;;;14.91;44.03
38616;BME280;24370;51.986;4.666;2022-12-01T14:42:24;102865.25;;;14.55;44.62
38616;BME280;24370;51.986;4.666;2022-12-01T14:45:13;102858.56;;;15.22;43.42
38616;BME280;24370;51.986;4.666;2022-12-01T14:48:01;102863.69;;;14.90;44.13
38616;BME280;24370;51.986;4.666;2022-12-01T14:50:45;102864.69;;;15.23;43.57
38616;BME280;24370;51.986;4.666;2022-12-01T14:55:41;102859.28;;;14.90;44.01
38616;BME280;24370;51.986;4.666;2022-12-01T14:58:15;102868.00;;;14.74;44.58
38616;BME280;24370;51.986;4.666;2022-12-01T15:00:59;102873.44;;;15.13;43.79
38616;BME280;24370;51.986;4.666;2022-12-01T15:03:32;102861.88;;;14.75;44.24
38616;BME280;24370;51.986;4.666;2022-12-01T15:05:58;102868.91;;;14.81;44.32
38616;BME280;24370;51.986;4.666;2022-12-01T15:08:29;102861.00;;;14.74;43.90
38616;BME280;24370;51.986;4.666;2022-12-01T15:11:01;102857.13;;;14.18;45.31
38616;BME280;24370;51.986;4.666;2022-12-01T15:16:03;102858.19;;;14.47;44.06
38616;BME280;24370;51.986;4.666;2022-12-01T15:18:31;102860.06;;;14.63;43.87